createdAt,value
2022-10-04T00:00:01.499Z,4.80
2022-10-04T00:02:34.771Z,4.60
2022-10-04T00:05:21.089Z,8.90
2022-10-04T00:07:56.739Z,3.40
2022-10-04T00:10:36.794Z,5.80
2022-10-04T00:13:25.478Z,3.30
2022-10-04T00:18:51.814Z,3.80
2022-10-04T00:22:01.116Z,6.70
2022-10-04T00:25:10.164Z,3.20
2022-10-04T00:28:36.498Z,7.00
2022-10-04T00:34:58.733Z,6.30
2022-10-04T00:38:01.549Z,7.30
2022-10-04T00:41:07.958Z,4.30
2022-10-04T00:44:07.019Z,4.30
2022-10-04T00:46:50.636Z,4.40
2022-10-04T00:50:01.841Z,5.80
2022-10-04T00:53:30.013Z,2.90
2022-10-04T00:56:31.210Z,3.80
2022-10-04T01:00:31.555Z,3.70
2022-10-04T01:03:44.585Z,5.60
2022-10-04T01:06:15.984Z,4.40
2022-10-04T01:09:00.835Z,5.50
2022-10-04T01:12:19.350Z,5.00
2022-10-04T01:16:07.304Z,3.40
2022-10-04T01:18:36.560Z,4.50
2022-10-04T01:21:32.868Z,4.00
2022-10-04T01:24:06.145Z,6.40
2022-10-04T01:27:03.307Z,4.00
2022-10-04T01:30:24.902Z,6.30
2022-10-04T01:38:05.941Z,3.80
2022-10-04T02:27:03.619Z,5.00
2022-10-04T03:12:08.054Z,12.40
2022-10-04T03:18:38.056Z,8.50
2022-10-04T03:22:22.744Z,11.80
2022-10-04T03:26:16.869Z,9.90
2022-10-04T03:29:36.332Z,8.80
2022-10-04T03:32:59.131Z,10.90
2022-10-04T03:36:36.565Z,10.50
2022-10-04T04:11:00.110Z,6.30
2022-10-04T04:14:22.794Z,7.50
2022-10-04T04:17:49.377Z,8.20
2022-10-04T04:20:54.813Z,4.90
2022-10-04T04:24:15.241Z,3.40
2022-10-04T04:27:29.168Z,4.90
2022-10-04T04:30:54.921Z,6.30
2022-10-04T04:34:16.883Z,4.50
2022-10-04T04:37:05.298Z,10.10
2022-10-04T04:39:44.115Z,3.80
2022-10-04T04:42:19.264Z,6.80
2022-10-04T04:45:14.823Z,18.00
2022-10-04T04:48:00.181Z,9.10
2022-10-04T04:51:47.805Z,7.20
2022-10-04T04:55:09.316Z,5.00
2022-10-04T04:58:37.628Z,5.30
2022-10-04T05:02:05.043Z,4.40
2022-10-04T05:09:10.886Z,5.80
2022-10-04T05:39:18.672Z,16.70
2022-10-04T05:42:26.915Z,8.40
2022-10-04T05:45:51.062Z,7.60
2022-10-04T05:49:16.717Z,7.30
2022-10-04T05:52:06.617Z,7.00
2022-10-04T05:58:27.542Z,6.20
2022-10-04T06:01:36.793Z,7.10
2022-10-04T06:05:00.928Z,6.20
2022-10-04T06:07:57.215Z,5.40
2022-10-04T06:11:34.284Z,8.20
2022-10-04T06:15:03.283Z,5.80
2022-10-04T06:18:35.252Z,6.00
2022-10-04T06:22:13.801Z,4.90
2022-10-04T06:25:28.132Z,4.70
2022-10-04T06:28:56.721Z,8.70
2022-10-04T06:32:55.845Z,7.90
2022-10-04T06:36:38.854Z,10.60
2022-10-04T07:07:30.386Z,5.00
2022-10-04T07:11:12.527Z,6.70
2022-10-04T07:15:06.724Z,5.40
2022-10-04T07:18:22.929Z,6.80
2022-10-04T07:22:05.949Z,4.50
2022-10-04T07:25:46.892Z,4.90
2022-10-04T07:29:13.917Z,6.30
2022-10-04T07:32:40.294Z,6.10
2022-10-04T07:36:21.986Z,10.20
2022-10-04T07:40:12.465Z,8.00
2022-10-04T07:43:42.296Z,6.30
2022-10-04T07:47:30.023Z,4.60
2022-10-04T07:51:30.391Z,6.10
2022-10-04T07:55:21.584Z,7.00
2022-10-04T07:59:20.448Z,8.20
2022-10-04T08:03:29.210Z,5.60
2022-10-04T08:07:01.056Z,6.40
2022-10-04T08:10:42.111Z,6.60
2022-10-04T09:16:51.294Z,5.60
2022-10-04T10:08:59.621Z,7.00
2022-10-04T10:13:01.082Z,4.00
2022-10-04T10:16:40.776Z,5.70
2022-10-04T10:20:50.206Z,5.70
2022-10-04T10:24:37.956Z,5.10
2022-10-04T10:28:18.169Z,4.80
2022-10-04T10:32:47.661Z,3.90
2022-10-04T10:36:03.804Z,3.30
2022-10-04T11:41:10.925Z,4.20
2022-10-04T11:45:16.851Z,3.40
2022-10-04T11:48:43.189Z,4.10
2022-10-04T11:52:46.386Z,5.40
2022-10-04T11:56:28.205Z,4.00
2022-10-04T12:03:34.502Z,5.30
2022-10-04T12:07:39.855Z,4.00
2022-10-04T12:11:51.233Z,4.40
2022-10-04T12:15:04.834Z,3.80
2022-10-04T12:18:13.906Z,4.60
2022-10-04T12:22:04.298Z,4.40
2022-10-04T12:25:34.837Z,2.90
2022-10-04T12:28:38.195Z,3.60
2022-10-04T12:31:47.128Z,3.00
2022-10-04T12:35:08.584Z,3.90
2022-10-04T12:49:34.893Z,2.80
2022-10-04T12:52:33.481Z,2.70
2022-10-04T13:02:55.257Z,4.00
2022-10-04T13:05:46.671Z,3.30
2022-10-04T13:08:57.666Z,2.30
2022-10-04T13:12:01.767Z,2.00
2022-10-04T13:14:58.086Z,4.80
2022-10-04T13:19:28.665Z,3.20
2022-10-04T13:23:14.332Z,1.60
2022-10-04T13:26:52.854Z,1.80
2022-10-04T13:30:11.901Z,1.90
2022-10-04T13:33:46.449Z,2.10
2022-10-04T13:37:45.253Z,2.30
2022-10-04T13:41:23.873Z,2.10
2022-10-04T13:45:08.642Z,1.60
2022-10-04T14:01:31.284Z,1.90
2022-10-04T14:09:49.725Z,2.10
2022-10-04T14:13:20.134Z,1.80
2022-10-04T14:17:15.081Z,1.90
2022-10-04T14:21:18.941Z,3.60
2022-10-04T14:28:52.458Z,2.20
2022-10-04T14:32:46.615Z,2.20
2022-10-04T14:36:21.474Z,2.30
2022-10-04T14:40:24.464Z,3.20
2022-10-04T14:47:22.693Z,5.20
2022-10-04T14:50:45.000Z,4.70
2022-10-04T14:53:45.781Z,1.90
2022-10-04T14:56:59.200Z,3.50
2022-10-04T15:00:31.750Z,3.40
2022-10-04T15:03:38.514Z,2.20
2022-10-04T15:07:21.681Z,3.30
2022-10-04T15:10:52.537Z,2.80
2022-10-04T15:14:34.326Z,2.20
2022-10-04T15:17:38.054Z,3.30
2022-10-04T15:21:10.097Z,4.40
2022-10-04T15:25:02.450Z,1.30
2022-10-04T15:28:26.806Z,1.80
2022-10-04T15:31:49.126Z,2.60
2022-10-04T15:35:28.276Z,1.40
2022-10-04T16:10:52.515Z,3.40
2022-10-04T16:14:15.369Z,4.30
2022-10-04T16:17:48.820Z,5.70
2022-10-04T16:21:34.788Z,4.50
2022-10-04T16:25:17.080Z,2.60
2022-10-04T16:28:46.012Z,3.50
2022-10-04T16:32:29.333Z,4.10
2022-10-04T16:36:24.340Z,6.10
2022-10-04T16:40:23.737Z,4.10
2022-10-04T16:44:01.477Z,3.50
2022-10-04T16:46:51.935Z,6.20
2022-10-04T16:49:54.827Z,4.90
2022-10-04T16:53:44.000Z,6.30
2022-10-04T16:57:13.507Z,4.90
2022-10-04T17:00:48.959Z,4.30
2022-10-04T17:04:28.909Z,16.70
2022-10-04T17:08:05.299Z,8.50
2022-10-04T17:12:02.032Z,9.50
2022-10-04T17:14:55.383Z,9.90
2022-10-04T17:18:00.860Z,9.20
2022-10-04T17:20:44.380Z,17.80
2022-10-04T17:23:52.767Z,40.30
2022-10-04T17:26:52.468Z,25.90
2022-10-04T17:29:34.219Z,20.50
2022-10-04T17:32:51.633Z,11.00
2022-10-04T17:35:59.244Z,9.60
2022-10-04T17:38:54.131Z,5.60
2022-10-04T17:41:58.217Z,12.60
2022-10-04T17:45:02.465Z,13.20
2022-10-04T17:48:26.754Z,18.30
2022-10-04T17:51:24.266Z,29.90
2022-10-04T17:54:42.319Z,26.70
2022-10-04T17:57:22.102Z,22.30
2022-10-04T18:00:08.511Z,12.10
2022-10-04T18:02:38.436Z,10.60
2022-10-04T18:05:22.068Z,6.70
2022-10-04T18:08:00.452Z,6.10
2022-10-04T18:11:06.712Z,7.40
2022-10-04T18:13:50.777Z,3.80
2022-10-04T18:16:43.684Z,5.60
2022-10-04T18:19:36.492Z,3.20
2022-10-04T18:23:03.067Z,3.20
2022-10-04T18:25:33.973Z,6.90
2022-10-04T18:28:07.503Z,5.40
2022-10-04T18:30:49.119Z,5.00
2022-10-04T18:34:22.858Z,4.20
2022-10-04T18:37:06.443Z,4.10
2022-10-04T18:39:50.638Z,6.30
2022-10-04T18:42:37.680Z,4.60
2022-10-04T18:45:31.029Z,6.20
2022-10-04T18:48:07.805Z,4.10
2022-10-04T18:50:43.694Z,3.80
2022-10-04T18:53:44.837Z,7.90
2022-10-04T18:56:13.179Z,5.70
2022-10-04T18:59:46.049Z,6.30
2022-10-04T19:02:40.898Z,6.20
2022-10-04T19:05:27.062Z,5.10
2022-10-04T19:08:38.652Z,3.50
2022-10-04T19:11:12.809Z,3.90
2022-10-04T19:14:25.077Z,2.60
2022-10-04T19:17:12.497Z,6.00
2022-10-04T19:20:15.121Z,3.80
2022-10-04T19:24:12.051Z,5.40
2022-10-04T19:27:20.166Z,3.70
2022-10-04T19:30:52.108Z,3.40
2022-10-04T19:34:14.041Z,4.00
2022-10-04T19:37:36.223Z,6.20
2022-10-04T19:40:52.380Z,4.60
2022-10-04T19:44:16.113Z,8.10
2022-10-04T19:47:36.760Z,7.60
2022-10-04T19:50:56.442Z,4.20
2022-10-04T19:54:08.403Z,8.60
2022-10-04T19:57:29.462Z,4.90
2022-10-04T20:00:59.774Z,5.20
2022-10-04T20:04:52.335Z,5.90
2022-10-04T20:08:34.960Z,4.60
2022-10-04T20:31:36.655Z,4.80
2022-10-04T20:34:57.890Z,2.20
2022-10-04T20:38:32.225Z,3.80
2022-10-04T20:41:49.581Z,4.90
2022-10-04T20:45:51.508Z,2.90
2022-10-04T20:48:51.604Z,4.30
2022-10-04T20:51:24.231Z,4.50
2022-10-04T20:54:00.957Z,2.40
2022-10-04T20:57:11.728Z,5.60
2022-10-04T21:00:07.385Z,3.10
2022-10-04T21:03:10.078Z,5.00
2022-10-04T21:05:47.783Z,5.60
2022-10-04T21:08:38.631Z,6.30
2022-10-04T21:11:21.015Z,8.00
2022-10-04T21:18:28.969Z,5.80
2022-10-04T21:21:52.030Z,6.00
2022-10-04T21:25:42.696Z,7.00
2022-10-04T21:28:52.785Z,5.30
2022-10-04T21:31:44.814Z,5.90
2022-10-04T21:35:42.308Z,23.70
2022-10-04T21:38:46.308Z,5.50
2022-10-04T21:41:58.307Z,10.10
2022-10-04T21:45:20.756Z,7.00
2022-10-04T21:48:36.537Z,7.90
2022-10-04T21:51:58.171Z,4.10
2022-10-04T21:55:22.098Z,8.50
2022-10-04T21:58:32.107Z,8.00
2022-10-04T22:02:10.125Z,8.40
2022-10-04T22:05:34.303Z,5.30
2022-10-04T22:09:10.368Z,3.60
2022-10-04T22:12:30.253Z,5.80
2022-10-04T22:16:10.815Z,3.80
2022-10-04T22:19:12.174Z,6.70
2022-10-04T22:22:39.812Z,4.70
2022-10-04T22:26:20.730Z,7.20
